Time;durP1;ratioP1;P1;durP2;ratioP2;P2;SDS_P1;SDS_P2;PMS_P1;PMS_P2;Temp;Humidity;BMP_temperature;BMP_pressure;BME280_temperature;BME280_humidity;BME280_pressure;Samples;Min_cycle;Max_cycle;Signal;HPM_P1;HPM_P2
2022/05/19 00:02:03;;;;;;;5.97;4.38;;;;;;;25.57;44.14;101943.81;4990034;28;20021;-68
2022/05/19 00:04:29;;;;;;;6.60;4.32;;;;;;;25.47;43.88;101930.78;5017647;28;20601;-68
2022/05/19 00:06:54;;;;;;;5.57;4.00;;;;;;;25.47;43.82;101941.44;4987522;28;20045;-68
2022/05/19 00:09:21;;;;;;;4.40;3.85;;;;;;;25.53;43.85;101950.53;5005383;28;20038;-68
2022/05/19 00:11:47;;;;;;;8.30;4.28;;;;;;;25.52;44.05;101957.72;5017968;28;20041;-68
2022/05/19 00:14:13;;;;;;;5.57;4.60;;;;;;;25.51;44.13;101947.25;4984310;28;20477;-68
2022/05/19 00:16:39;;;;;;;6.10;4.40;;;;;;;25.48;44.14;101940.44;5016482;28;20451;-68
2022/05/19 00:19:05;;;;;;;6.35;4.63;;;;;;;25.47;44.05;101944.09;4992294;28;20068;-68
2022/05/19 00:21:31;;;;;;;7.13;4.28;;;;;;;25.46;44.44;101949.63;5015020;28;20046;-68
2022/05/19 00:23:57;;;;;;;6.20;4.15;;;;;;;25.46;43.97;101941.63;4991727;28;20046;-68
2022/05/19 00:26:23;;;;;;;6.45;4.53;;;;;;;25.49;44.20;101941.25;5016810;28;20029;-68
2022/05/19 00:28:48;;;;;;;6.47;4.45;;;;;;;25.45;44.29;101937.31;4989492;28;20493;-67
2022/05/19 00:31:15;;;;;;;5.97;4.53;;;;;;;25.45;44.32;101935.47;5014306;28;20038;-67
2022/05/19 00:33:41;;;;;;;5.82;4.43;;;;;;;25.45;44.21;101929.31;4988387;28;20037;-68
2022/05/19 00:36:12;;;;;;;6.10;4.40;;;;;;;25.43;44.15;101923.34;5013729;28;20045;-68
2022/05/19 00:38:38;;;;;;;4.97;4.22;;;;;;;25.40;44.21;101921.06;4983650;28;20037;-67
2022/05/19 00:41:05;;;;;;;7.43;4.75;;;;;;;25.37;44.39;101919.63;5018688;28;20029;-67
2022/05/19 00:43:35;;;;;;;5.88;4.07;;;;;;;25.33;44.40;101917.53;4988567;28;20048;-67
2022/05/19 00:46:20;;;;;;;5.68;4.30;;;;;;;25.36;44.46;101914.47;5015393;28;20044;-68
2022/05/19 00:48:59;;;;;;;6.97;4.57;;;;;;;25.38;44.40;101909.78;4985158;28;20442;-67
2022/05/19 00:51:37;;;;;;;5.45;4.45;;;;;;;25.39;44.25;101916.75;5016602;28;20037;-68
2022/05/19 00:54:06;;;;;;;6.40;4.40;;;;;;;25.36;44.55;101914.47;4989813;28;20108;-67
2022/05/19 00:56:52;;;;;;;7.65;5.15;;;;;;;25.37;44.23;101911.63;5015592;28;20037;-67
2022/05/19 00:59:27;;;;;;;5.30;4.45;;;;;;;25.37;44.32;101916.94;4986756;28;20025;-67
2022/05/19 01:01:55;;;;;;;5.55;4.72;;;;;;;25.25;44.57;101891.81;5018017;28;20059;-67
2022/05/19 01:04:39;;;;;;;5.63;4.28;;;;;;;25.23;44.49;101888.50;4988931;28;20030;-67
2022/05/19 01:07:10;;;;;;;6.03;4.63;;;;;;;25.30;44.24;101898.22;5015037;28;20037;-67
2022/05/19 01:09:38;;;;;;;6.10;4.22;;;;;;;25.34;44.32;101905.84;4958957;28;20044;-67
2022/05/19 01:12:06;;;;;;;6.28;4.68;;;;;;;25.34;44.46;101906.69;5015104;28;20026;-68
2022/05/19 01:14:33;;;;;;;6.20;4.47;;;;;;;25.32;44.20;101892.72;4986434;28;20041;-68
2022/05/19 01:16:59;;;;;;;8.55;4.60;;;;;;;25.34;44.16;101892.53;5015547;28;20142;-68
2022/05/19 01:19:42;;;;;;;9.07;4.78;;;;;;;25.32;44.43;101886.56;4987147;28;20522;-68
2022/05/19 01:22:38;;;;;;;6.05;4.82;;;;;;;25.34;44.18;101885.34;5014688;28;20498;-68
2022/05/19 01:25:18;;;;;;;6.22;4.68;;;;;;;25.32;44.29;101887.38;4989482;28;20041;-67
2022/05/19 01:27:44;;;;;;;6.70;4.75;;;;;;;25.32;44.08;101884.72;5013857;28;20124;-68
2022/05/19 01:30:11;;;;;;;7.75;4.75;;;;;;;25.32;44.28;101892.72;4983485;28;20143;-68
2022/05/19 01:32:37;;;;;;;6.68;4.78;;;;;;;25.26;44.30;101880.13;5015519;28;20091;-68
2022/05/19 01:35:04;;;;;;;5.63;4.60;;;;;;;25.30;44.35;101889.38;4987986;28;21446;-68
2022/05/19 01:37:32;;;;;;;7.60;4.80;;;;;;;25.26;44.39;101888.94;5015294;28;20112;-67
2022/05/19 01:40:57;;;;;;;6.68;4.82;;;;;;;25.28;44.50;101889.56;4988733;28;20467;-67
2022/05/19 01:43:51;;;;;;;5.80;5.13;;;;;;;25.24;44.32;101880.31;4997015;28;22156;-67
2022/05/19 01:46:32;;;;;;;6.30;4.57;;;;;;;25.25;44.67;101884.63;5013351;28;20034;-68
2022/05/19 01:49:04;;;;;;;5.18;4.30;;;;;;;25.22;44.28;101877.03;4985153;28;20037;-68
2022/05/19 01:51:54;;;;;;;8.00;5.18;;;;;;;25.21;43.84;101874.56;5010385;28;20176;-68
2022/05/19 01:54:41;;;;;;;6.38;4.60;;;;;;;25.26;44.38;101880.13;4985773;28;20072;-68
2022/05/19 01:57:21;;;;;;;7.55;5.53;;;;;;;25.26;44.34;101875.63;5011395;28;20095;-67
2022/05/19 02:00:01;;;;;;;6.97;4.75;;;;;;;25.25;44.42;101870.47;4990027;28;20034;-67
2022/05/19 02:02:52;;;;;;;5.95;4.43;;;;;;;25.26;44.41;101870.28;5014225;28;20044;-67
2022/05/19 02:05:36;;;;;;;7.15;4.82;;;;;;;25.26;44.30;101861.47;4985648;28;20072;-67
2022/05/19 02:08:05;;;;;;;7.35;4.90;;;;;;;25.19;44.59;101849.94;5014408;28;20025;-67
2022/05/19 02:10:36;;;;;;;7.88;5.40;;;;;;;25.22;44.50;101854.88;4972246;28;20037;-67
2022/05/19 02:13:03;;;;;;;6.25;4.65;;;;;;;25.22;44.51;101855.69;5012554;28;20135;-68
2022/05/19 02:15:37;;;;;;;7.78;4.95;;;;;;;25.25;44.26;101854.47;4986722;28;20038;-68
2022/05/19 02:18:03;;;;;;;7.82;5.45;;;;;;;25.24;44.34;101845.66;5016165;28;20084;-68
2022/05/19 02:20:30;;;;;;;6.63;4.57;;;;;;;25.13;44.62;101835.50;4987300;28;20626;-68
2022/05/19 02:22:57;;;;;;;8.25;5.45;;;;;;;25.11;44.63;101826.06;5015668;28;20100;-67
2022/05/19 02:25:42;;;;;;;6.40;5.38;;;;;;;25.23;44.39;101843.19;4987979;28;20045;-67
2022/05/19 02:28:23;;;;;;;8.52;5.15;;;;;;;25.25;44.34;101836.66;5018154;28;22332;-67
2022/05/19 02:30:48;;;;;;;7.75;5.50;;;;;;;25.22;44.33;101833.53;4995405;28;20033;-67
2022/05/19 02:33:15;;;;;;;7.13;5.18;;;;;;;25.20;44.45;101824.91;5018677;28;20045;-67
2022/05/19 02:35:41;;;;;;;7.93;5.20;;;;;;;25.19;44.46;101828.59;4996463;28;20037;-68
2022/05/19 02:38:08;;;;;;;7.30;5.22;;;;;;;25.20;44.27;101824.91;5019511;28;20042;-67
2022/05/19 02:40:35;;;;;;;7.70;5.38;;;;;;;25.18;44.42;101825.13;4989409;28;20052;-67
2022/05/19 02:43:02;;;;;;;9.55;6.07;;;;;;;25.20;44.45;101817.75;5014799;28;20045;-67
2022/05/19 02:45:28;;;;;;;6.63;5.43;;;;;;;25.17;44.51;101812.81;4992391;28;20025;-67
2022/05/19 02:47:54;;;;;;;7.25;5.10;;;;;;;25.15;44.59;101811.34;5018994;28;20039;-67
2022/05/19 02:50:22;;;;;;;7.95;5.85;;;;;;;25.18;44.24;101813.63;4988029;28;20049;-68
2022/05/19 02:52:49;;;;;;;8.30;5.28;;;;;;;25.17;44.65;101803.97;5018458;28;20100;-68
2022/05/19 02:55:15;;;;;;;7.70;5.32;;;;;;;25.20;44.64;101809.75;4987318;28;20033;-67
2022/05/19 02:57:42;;;;;;;7.03;5.07;;;;;;;25.19;44.42;101804.63;5014808;28;20041;-67
2022/05/19 03:00:14;;;;;;;7.65;5.60;;;;;;;25.15;44.36;101804.19;4992863;28;20048;-68
2022/05/19 03:02:40;;;;;;;8.38;5.57;;;;;;;25.12;44.41;101793.03;5018090;28;20411;-68
2022/05/19 03:05:07;;;;;;;7.10;5.03;;;;;;;25.18;44.65;101801.13;4990199;28;20087;-67
2022/05/19 03:07:33;;;;;;;9.38;5.97;;;;;;;25.14;44.51;101797.19;5016472;28;20038;-67
2022/05/19 03:09:58;;;;;;;9.63;5.97;;;;;;;25.16;44.74;101805.00;4975355;28;20050;-67
2022/05/19 03:12:24;;;;;;;6.63;5.47;;;;;;;25.15;44.41;101800.69;5014633;28;20053;-67
2022/05/19 03:14:49;;;;;;;7.22;5.30;;;;;;;25.11;44.59;101800.22;5018716;28;20037;-67
2022/05/19 03:17:15;;;;;;;7.75;5.35;;;;;;;25.15;44.53;101798.84;4991781;28;20058;-68
2022/05/19 03:19:41;;;;;;;7.30;5.05;;;;;;;25.14;44.58;101797.19;5015758;28;20488;-67
2022/05/19 03:22:07;;;;;;;8.20;4.90;;;;;;;25.17;44.64;101802.16;4990099;28;20069;-68
2022/05/19 03:24:33;;;;;;;7.25;5.60;;;;;;;25.12;44.50;101795.72;5016588;28;20112;-68
2022/05/19 03:26:59;;;;;;;6.70;5.65;;;;;;;25.16;44.63;101808.50;5001231;28;20746;-68
2022/05/19 03:29:25;;;;;;;6.22;5.28;;;;;;;25.15;44.53;101803.34;5015823;28;20041;-68
2022/05/19 03:31:52;;;;;;;6.80;4.85;;;;;;;25.11;44.40;101797.56;4984397;28;20128;-67
2022/05/19 03:34:17;;;;;;;7.00;5.43;;;;;;;25.14;44.67;101802.53;5017834;28;20076;-67
2022/05/19 03:36:44;;;;;;;6.88;5.38;;;;;;;25.16;44.36;101805.00;4987697;28;20087;-67
2022/05/19 03:39:11;;;;;;;6.15;5.43;;;;;;;25.15;44.47;101800.69;5015422;28;20041;-67
2022/05/19 03:41:37;;;;;;;7.15;5.50;;;;;;;25.11;44.47;101796.72;4984337;28;20116;-67
2022/05/19 03:44:04;;;;;;;8.82;5.82;;;;;;;25.15;44.46;101801.50;5015475;28;20032;-68
2022/05/19 03:46:30;;;;;;;7.30;5.40;;;;;;;25.16;44.27;101813.00;4986490;28;20057;-67
2022/05/19 03:48:56;;;;;;;8.40;5.45;;;;;;;25.17;44.32;101799.47;5016638;28;20048;-68
2022/05/19 03:51:24;;;;;;;7.80;6.20;;;;;;;25.12;44.61;101804.53;4986750;28;20044;-68
2022/05/19 03:53:50;;;;;;;7.32;5.22;;;;;;;25.03;44.46;101792.38;5013939;28;20283;-68
2022/05/19 03:56:20;;;;;;;8.45;5.00;;;;;;;25.13;44.54;101797.38;4989540;28;20048;-68
2022/05/19 03:58:48;;;;;;;7.13;5.40;;;;;;;25.13;44.56;101798.19;5015408;28;20559;-68
2022/05/19 04:01:14;;;;;;;9.23;5.53;;;;;;;25.14;44.54;101793.72;4991930;28;20087;-68
2022/05/19 04:03:39;;;;;;;8.07;5.90;;;;;;;25.09;44.50;101791.59;5015493;28;20053;-67
2022/05/19 04:06:05;;;;;;;7.53;5.90;;;;;;;25.13;44.35;101798.19;4988176;28;20152;-67
2022/05/19 04:08:32;;;;;;;8.13;5.35;;;;;;;25.13;44.52;101795.53;5013084;28;20088;-68
2022/05/19 04:10:58;;;;;;;9.85;5.70;;;;;;;25.13;44.68;101797.38;4988450;28;20828;-68
2022/05/19 04:13:24;;;;;;;7.32;5.72;;;;;;;25.11;44.48;101797.56;5002819;28;20041;-67
2022/05/19 04:15:49;;;;;;;9.73;5.60;;;;;;;25.10;44.28;101787.91;5013452;28;20224;-67
2022/05/19 04:18:15;;;;;;;7.07;5.07;;;;;;;25.10;44.54;101784.44;4993264;28;20085;-68
2022/05/19 04:20:43;;;;;;;7.82;5.85;;;;;;;24.84;44.41;101743.19;5014909;28;20488;-68
2022/05/19 04:23:09;;;;;;;8.05;5.68;;;;;;;25.12;44.63;101785.88;4988110;28;20033;-68
2022/05/19 04:25:35;;;;;;;6.90;5.35;;;;;;;25.10;44.67;101774.59;5013478;28;20121;-68
2022/05/19 04:28:01;;;;;;;6.35;5.28;;;;;;;25.12;44.56;101782.38;4984355;28;20536;-67
2022/05/19 04:30:27;;;;;;;7.03;5.30;;;;;;;24.97;44.44;101761.97;5015400;28;20040;-67
2022/05/19 04:32:53;;;;;;;9.23;5.85;;;;;;;25.09;44.47;101775.59;4988776;28;20037;-67
2022/05/19 04:35:18;;;;;;;7.50;5.90;;;;;;;25.06;44.35;101764.50;5016218;28;20030;-67
2022/05/19 04:37:45;;;;;;;7.88;5.40;;;;;;;25.09;44.37;101764.13;4984649;28;20040;-68
2022/05/19 04:40:12;;;;;;;7.65;5.35;;;;;;;25.05;44.64;101755.69;5017684;28;20052;-68
2022/05/19 04:42:38;;;;;;;6.00;5.20;;;;;;;25.11;44.63;101760.25;4988119;28;20041;-68
2022/05/19 04:45:04;;;;;;;6.90;5.45;;;;;;;25.12;44.60;101755.75;5015757;28;20036;-68
2022/05/19 04:47:32;;;;;;;7.10;5.80;;;;;;;25.12;44.49;101755.75;4988239;28;20439;-67
2022/05/19 04:49:57;;;;;;;8.32;6.20;;;;;;;25.12;44.55;101748.56;5015561;28;20045;-67
2022/05/19 04:52:23;;;;;;;8.10;5.43;;;;;;;25.13;44.47;101760.06;4990091;28;20060;-68
2022/05/19 04:54:49;;;;;;;8.68;6.35;;;;;;;25.12;44.40;101759.22;5014430;28;20042;-68
2022/05/19 04:57:14;;;;;;;7.55;5.55;;;;;;;25.13;44.48;101773.38;4982733;28;20037;-68
2022/05/19 04:59:41;;;;;;;9.77;5.70;;;;;;;25.09;44.36;101774.78;5016201;28;20068;-67
2022/05/19 05:02:08;;;;;;;10.85;6.03;;;;;;;25.13;44.56;101790.19;4986000;28;20087;-67
2022/05/19 05:04:34;;;;;;;9.90;5.95;;;;;;;25.12;44.48;101787.72;5015004;28;20068;-67
2022/05/19 05:07:00;;;;;;;8.68;6.40;;;;;;;25.14;44.35;101793.72;4986782;28;20372;-68
2022/05/19 05:09:25;;;;;;;7.90;5.70;;;;;;;25.13;44.36;101792.84;5018114;28;20049;-67
2022/05/19 05:11:51;;;;;;;8.38;5.97;;;;;;;25.06;44.72;101776.00;4998625;28;21306;-67
2022/05/19 05:14:17;;;;;;;7.25;5.78;;;;;;;25.12;44.54;101791.22;5012950;28;20048;-68
2022/05/19 05:16:46;;;;;;;8.30;6.32;;;;;;;25.11;44.23;101788.75;4986661;28;20070;-68
2022/05/19 05:19:11;;;;;;;10.55;6.45;;;;;;;25.16;44.40;101800.50;5015423;28;20069;-68
2022/05/19 05:21:37;;;;;;;10.35;6.63;;;;;;;25.16;44.54;101800.50;4998797;28;20048;-66
2022/05/19 05:24:03;;;;;;;9.73;6.18;;;;;;;25.15;44.19;101796.19;5019805;28;20041;-67
2022/05/19 05:26:28;;;;;;;6.60;5.85;;;;;;;25.15;44.31;101798.03;4993647;28;20025;-67
2022/05/19 05:28:54;;;;;;;10.50;6.13;;;;;;;25.17;44.35;101791.47;5011264;28;20026;-67
2022/05/19 05:31:19;;;;;;;8.88;5.93;;;;;;;25.17;44.28;101799.47;5004356;28;20037;-67
2022/05/19 05:33:45;;;;;;;7.75;6.10;;;;;;;25.18;44.20;101802.97;4998661;28;20044;-67
2022/05/19 05:36:10;;;;;;;9.43;6.20;;;;;;;25.16;44.29;101805.81;5012681;28;20041;-67
2022/05/19 05:38:36;;;;;;;9.95;6.32;;;;;;;25.13;44.55;101800.84;4981966;28;20052;-67
2022/05/19 05:41:02;;;;;;;8.27;6.15;;;;;;;25.19;44.41;101821.44;5012705;28;20087;-66
2022/05/19 05:43:30;;;;;;;10.07;6.38;;;;;;;25.19;44.52;101821.44;4986387;28;20045;-67
2022/05/19 05:46:07;;;;;;;7.60;5.90;;;;;;;25.20;44.31;101814.25;5015483;28;20052;-67
2022/05/19 05:48:36;;;;;;;8.27;6.22;;;;;;;25.16;44.40;101815.66;4987956;28;20072;-66
2022/05/19 05:51:03;;;;;;;7.32;6.00;;;;;;;25.23;44.20;101828.03;5012806;28;20351;-66
2022/05/19 05:53:29;;;;;;;7.40;5.40;;;;;;;25.24;44.14;101836.84;4985469;28;20049;-66
2022/05/19 05:55:54;;;;;;;6.88;5.50;;;;;;;25.23;44.15;101837.84;5016570;28;20033;-66
2022/05/19 05:58:24;;;;;;;8.40;5.45;;;;;;;25.23;44.32;101840.53;4993046;28;20061;-68
2022/05/19 06:00:50;;;;;;;6.80;5.65;;;;;;;25.25;44.38;101836.66;5019534;28;20037;-67
2022/05/19 06:03:15;;;;;;;10.02;5.65;;;;;;;25.18;44.16;101843.78;4989071;28;20049;-68
2022/05/19 06:05:42;;;;;;;6.95;5.75;;;;;;;25.20;44.36;101847.06;5020113;28;20029;-66
2022/05/19 06:08:07;;;;;;;6.32;5.45;;;;;;;25.23;44.25;101845.84;4987752;28;20049;-66
2022/05/19 06:10:33;;;;;;;5.78;5.18;;;;;;;25.26;44.25;101846.28;5018296;28;20041;-66
2022/05/19 06:12:58;;;;;;;6.05;4.88;;;;;;;25.23;44.32;101844.00;4972352;28;20107;-66
2022/05/19 06:15:24;;;;;;;6.38;5.18;;;;;;;25.24;44.54;101852.84;5016261;28;20751;-66
2022/05/19 06:17:50;;;;;;;6.60;5.57;;;;;;;25.23;44.35;101843.19;4991139;28;20063;-66
2022/05/19 06:20:17;;;;;;;7.82;4.85;;;;;;;25.24;44.43;101847.50;5020365;28;20065;-67
2022/05/19 06:22:44;;;;;;;5.82;5.10;;;;;;;25.24;44.29;101864.31;4994414;28;20033;-66
2022/05/19 06:25:12;;;;;;;6.35;5.18;;;;;;;25.19;44.43;101850.75;5009897;28;20033;-66
2022/05/19 06:27:38;;;;;;;6.87;4.90;;;;;;;25.22;44.50;101854.88;5001639;28;20166;-68
2022/05/19 06:30:07;;;;;;;7.55;5.43;;;;;;;25.25;44.30;101844.66;5005395;28;20053;-67
2022/05/19 06:32:34;;;;;;;5.38;4.55;;;;;;;25.25;44.33;101841.97;5010674;28;20045;-67
2022/05/19 06:34:59;;;;;;;6.22;4.63;;;;;;;25.25;44.52;101836.66;4998700;28;20043;-67
2022/05/19 06:37:25;;;;;;;5.88;4.95;;;;;;;25.21;44.37;101827.38;5017348;28;20030;-67
2022/05/19 06:39:50;;;;;;;6.00;5.07;;;;;;;25.22;44.66;101822.88;4988302;28;20045;-65
2022/05/19 06:42:16;;;;;;;6.65;5.28;;;;;;;25.12;44.36;101796.53;5018032;28;20053;-65
2022/05/19 06:44:43;;;;;;;6.47;4.70;;;;;;;25.24;44.12;101811.00;4987784;28;20533;-67
2022/05/19 06:47:14;;;;;;;6.60;5.05;;;;;;;25.25;44.25;101801.16;5017401;28;20036;-66
2022/05/19 06:49:51;;;;;;;5.93;5.00;;;;;;;25.26;44.20;101813.47;4991743;28;20041;-65
2022/05/19 06:52:20;;;;;;;5.22;4.40;;;;;;;25.18;44.40;101792.31;5015233;28;20048;-65
2022/05/19 06:54:47;;;;;;;5.30;4.60;;;;;;;25.24;44.49;101787.00;4991895;28;20379;-65
2022/05/19 06:57:13;;;;;;;5.93;4.40;;;;;;;25.22;44.76;101796.22;5015238;28;20397;-67
2022/05/19 06:59:40;;;;;;;6.75;4.72;;;;;;;25.23;44.79;101773.88;4984020;28;20044;-68
2022/05/19 07:02:07;;;;;;;7.32;4.90;;;;;;;25.42;44.73;101788.38;5017512;28;20056;-69
2022/05/19 07:04:33;;;;;;;8.80;5.15;;;;;;;26.07;43.37;101798.69;4987380;28;20037;-71
2022/05/19 07:06:59;;;;;;;10.30;6.03;;;;;;;26.22;42.88;101805.75;5014537;28;20087;-71
2022/05/19 07:09:25;;;;;;;8.13;6.22;;;;;;;26.27;42.86;101809.44;4987461;28;20160;-71
2022/05/19 07:11:51;;;;;;;11.38;6.50;;;;;;;26.29;43.03;101830.59;5015571;28;20045;-71
2022/05/19 07:14:17;;;;;;;13.43;6.80;;;;;;;26.30;42.79;101825.06;4990742;28;20040;-71
2022/05/19 07:16:44;;;;;;;11.48;7.13;;;;;;;26.30;43.06;101833.06;5018733;28;20052;-72
2022/05/19 07:21:55;;;;;;;11.32;7.30;;;;;;;26.27;43.15;101843.34;5017310;28;20099;-71
2022/05/19 07:24:21;;;;;;;22.45;13.18;;;;;;;26.02;45.20;101846.47;4993629;28;20696;-68
2022/05/19 07:26:52;;;;;;;19.38;10.75;;;;;;;26.03;44.71;101847.28;5017932;28;20049;-71
2022/05/19 07:29:18;;;;;;;13.93;9.85;;;;;;;26.02;44.83;101854.47;4989648;28;20041;-70
2022/05/19 07:31:46;;;;;;;14.60;8.27;;;;;;;26.02;44.36;101848.31;5019608;28;20037;-70
2022/05/19 07:34:14;;;;;;;15.77;8.65;;;;;;;26.00;44.70;101848.50;4994694;28;20041;-70
2022/05/19 07:36:40;;;;;;;18.25;8.07;;;;;;;25.98;44.50;101839.06;5017391;28;20472;-71
2022/05/19 07:39:06;;;;;;;12.57;7.70;;;;;;;26.01;44.70;101855.50;4993484;28;20043;-70
2022/05/19 07:41:32;;;;;;;11.45;7.65;;;;;;;25.98;44.79;101863.09;5014606;28;20038;-71
2022/05/19 07:43:58;;;;;;;12.73;7.00;;;;;;;25.91;44.41;101841.69;4990786;28;20046;-70
2022/05/19 07:46:25;;;;;;;13.10;7.72;;;;;;;25.97;44.79;101862.25;5022644;28;20139;-70
2022/05/19 07:48:54;;;;;;;13.15;6.70;;;;;;;25.90;44.59;101875.56;4990422;28;20124;-69
2022/05/19 07:51:24;;;;;;;15.73;8.65;;;;;;;25.83;45.82;101869.34;5019226;28;20381;-69
2022/05/19 07:53:51;;;;;;;15.48;6.95;;;;;;;25.84;45.12;101872.84;4995634;28;20041;-69
2022/05/19 07:56:16;;;;;;;10.82;7.30;;;;;;;25.85;44.89;101878.00;5017433;28;20420;-69
2022/05/19 07:58:42;;;;;;;12.75;7.78;;;;;;;25.87;44.76;101891.16;4990859;28;20500;-69
2022/05/19 08:01:08;;;;;;;12.48;8.07;;;;;;;25.88;45.06;101885.63;5020576;28;21620;-69
2022/05/19 08:03:34;;;;;;;12.38;7.47;;;;;;;25.81;44.78;101847.38;4996202;28;20759;-69
2022/05/19 08:06:00;;;;;;;10.57;7.35;;;;;;;25.77;44.96;101822.09;5023016;28;20381;-70
2022/05/19 08:08:26;;;;;;;10.27;7.13;;;;;;;25.85;44.68;101837.13;4993300;28;20046;-69
2022/05/19 08:10:57;;;;;;;11.93;7.15;;;;;;;25.85;45.05;101834.47;5025420;28;20029;-67
2022/05/19 08:16:07;;;;;;;10.25;7.15;;;;;;;25.77;45.65;101862.13;5016561;28;20132;-69
2022/05/19 08:18:33;;;;;;;10.80;7.18;;;;;;;25.81;45.29;101873.22;4995474;28;20111;-69
2022/05/19 08:21:09;;;;;;;11.48;7.00;;;;;;;25.80;45.16;101880.41;5001035;28;20033;-70
2022/05/19 08:23:45;;;;;;;12.68;7.05;;;;;;;25.77;45.15;101878.13;4992611;28;20037;-69
2022/05/19 08:26:11;;;;;;;8.90;6.50;;;;;;;25.76;45.26;101871.16;5020083;28;20030;-69
2022/05/19 08:28:41;;;;;;;16.90;10.90;;;;;;;25.75;46.14;101872.16;4983418;28;20147;-69
2022/05/19 08:31:13;;;;;;;19.58;12.90;;;;;;;25.74;47.12;101867.03;5019020;28;20464;-76
2022/05/19 08:33:41;;;;;;;20.15;13.77;;;;;;;25.63;47.88;101865.69;4993272;28;21077;-69
2022/05/19 08:36:08;;;;;;;20.90;13.52;;;;;;;25.48;48.06;101832.94;5017702;28;20041;-70
2022/05/19 08:38:35;;;;;;;17.98;11.57;;;;;;;25.78;47.33;101858.44;4992039;28;20047;-70
2022/05/19 08:41:08;;;;;;;17.10;10.73;;;;;;;25.97;46.74;101856.91;5007345;28;20033;-74
2022/05/19 08:43:59;;;;;;;15.95;9.10;;;;;;;26.10;46.46;101853.50;4993780;28;20128;-72
2022/05/19 08:46:31;;;;;;;13.40;7.82;;;;;;;26.24;46.00;101838.41;5006076;28;20103;-71
2022/05/19 08:49:21;;;;;;;13.75;7.70;;;;;;;26.30;45.64;101818.91;4987291;28;21608;-76
2022/05/19 08:52:01;;;;;;;11.55;6.90;;;;;;;26.37;45.56;101809.09;5033121;28;20040;-74
2022/05/19 08:54:27;;;;;;;;;;;;;;;26.31;45.97;101800.00;4984977;28;20037;-77
2022/05/19 08:57:05;;;;;;;8.93;5.95;;;;;;;26.40;45.33;101801.53;5018573;28;19931;-79
2022/05/19 08:59:44;;;;;;;12.95;7.18;;;;;;;26.43;45.19;101801.13;4987251;28;20033;-75
2022/05/19 09:02:14;;;;;;;8.63;5.45;;;;;;;26.46;45.03;101786.53;5016370;28;20480;-75
2022/05/19 09:04:57;;;;;;;9.35;6.53;;;;;;;26.51;45.05;101797.44;4989212;28;20036;-74
2022/05/19 09:11:00;;;;;;;10.40;5.75;;;;;;;26.60;44.47;101798.91;4984988;28;20538;-75
2022/05/19 09:13:37;;;;;;;12.43;7.28;;;;;;;26.30;45.09;101801.03;4998897;28;20183;-76
2022/05/19 09:16:12;;;;;;;9.95;6.78;;;;;;;26.33;45.45;101826.50;5007283;28;20041;-73
2022/05/19 09:18:42;;;;;;;16.88;12.20;;;;;;;26.05;47.06;101832.75;5014771;28;20057;-67
2022/05/19 09:21:08;;;;;;;20.20;12.55;;;;;;;25.92;47.56;101837.19;4985579;28;21706;-66
2022/05/19 09:23:35;;;;;;;18.45;13.30;;;;;;;25.77;48.44;101843.44;5012072;28;20116;-67
2022/05/19 09:26:16;;;;;;;20.08;13.80;;;;;;;25.75;48.03;101844.66;4983622;28;20045;-68
2022/05/19 09:28:45;;;;;;;18.35;13.77;;;;;;;25.88;48.37;101842.09;5013659;28;20404;-68
2022/05/19 09:31:12;;;;;;;16.27;10.77;;;;;;;26.16;46.95;101842.84;4988231;28;20132;-70
2022/05/19 09:33:43;;;;;;;15.07;9.40;;;;;;;26.32;46.56;101843.56;5020718;28;20471;-71
2022/05/19 09:36:12;;;;;;;11.20;6.97;;;;;;;26.41;46.30;101855.75;4999594;28;20041;-71
2022/05/19 09:38:47;;;;;;;14.07;7.13;;;;;;;26.49;45.75;101875.09;5019735;28;20029;-69
2022/05/19 09:41:28;;;;;;;10.95;7.20;;;;;;;26.54;45.76;101873.66;4997118;28;20037;-72
2022/05/19 09:43:56;;;;;;;8.77;6.20;;;;;;;26.60;45.35;101879.06;5021835;28;20541;-75
2022/05/19 09:46:23;;;;;;;9.63;5.95;;;;;;;26.60;45.69;101879.06;4991605;28;20702;-72
2022/05/19 09:49:01;;;;;;;10.32;6.40;;;;;;;26.65;45.07;101868.59;5018489;28;20839;-71
2022/05/19 09:51:40;;;;;;;9.27;5.43;;;;;;;26.66;45.32;101861.41;4991443;28;20033;-71
2022/05/19 09:54:06;;;;;;;8.98;6.05;;;;;;;26.70;45.25;101865.31;5018401;28;20127;-71
2022/05/19 09:56:37;;;;;;;8.73;5.95;;;;;;;26.73;45.25;101867.56;4991625;28;20033;-71
2022/05/19 09:59:07;;;;;;;8.88;6.00;;;;;;;26.66;44.88;101840.84;5014457;28;20192;-70
2022/05/19 10:01:43;;;;;;;8.65;5.35;;;;;;;26.76;44.72;101832.47;5007181;28;20091;-72
2022/05/19 10:04:25;;;;;;;7.97;5.57;;;;;;;26.78;44.95;101817.03;5018123;28;20041;-71
2022/05/19 10:07:06;;;;;;;8.23;5.47;;;;;;;26.87;44.55;101806.97;5017351;28;20041;-71
2022/05/19 10:09:39;;;;;;;10.50;4.90;;;;;;;26.88;44.99;101803.28;4994366;28;21763;-71
2022/05/19 10:12:09;;;;;;;6.45;4.88;;;;;;;26.88;44.61;101809.44;5016750;28;20483;-68
2022/05/19 10:14:35;;;;;;;8.15;5.32;;;;;;;26.92;44.54;101796.50;4993106;28;20127;-72
2022/05/19 10:17:41;;;;;;;6.97;4.95;;;;;;;26.93;44.69;101774.06;5034284;28;20041;-69
2022/05/19 10:20:06;;;;;;;7.22;5.38;;;;;;;26.95;44.74;101774.72;4954613;28;20053;-71
2022/05/19 10:23:02;;;;;;;6.25;4.72;;;;;;;26.98;44.80;101777.81;5021580;28;20383;-69
2022/05/19 10:26:15;;;;;;;6.47;4.90;;;;;;;26.96;44.65;101766.50;4995854;28;20672;-72
2022/05/19 10:32:01;;;;;;;16.58;9.60;;;;;;;26.62;45.88;101770.16;4997696;28;20045;-73
2022/05/19 10:34:40;;;;;;;11.63;8.52;;;;;;;26.49;46.01;101762.09;4998824;28;20030;-67
2022/05/19 10:37:08;;;;;;;10.50;8.07;;;;;;;26.52;45.96;101764.34;5018588;28;20047;-68
2022/05/19 10:39:50;;;;;;;9.02;7.07;;;;;;;26.66;45.60;101767.88;4988006;28;20579;-71
2022/05/19 10:42:38;;;;;;;10.93;6.22;;;;;;;26.69;44.99;101757.63;5016744;28;20044;-71
2022/05/19 10:45:22;;;;;;;8.18;5.82;;;;;;;26.69;45.32;101754.94;4985986;28;20045;-69
2022/05/19 10:47:56;;;;;;;7.30;5.35;;;;;;;26.71;45.09;101754.75;5019896;28;20132;-70
2022/05/19 10:50:40;;;;;;;8.07;5.50;;;;;;;26.71;44.93;101758.22;4988827;28;20041;-70
2022/05/19 10:53:35;;;;;;;8.77;5.47;;;;;;;26.70;45.16;101753.91;5015605;28;20037;-68
2022/05/19 10:56:19;;;;;;;7.10;5.35;;;;;;;26.63;44.98;101734.38;4984866;28;20041;-70
2022/05/19 10:59:12;;;;;;;6.93;5.38;;;;;;;26.72;44.98;101741.16;5017493;28;20053;-70
2022/05/19 11:01:49;;;;;;;8.25;5.53;;;;;;;26.75;44.94;101726.56;4998263;28;20660;-69
2022/05/19 11:04:53;;;;;;;7.35;5.82;;;;;;;26.79;44.89;101717.16;5007097;28;20025;-69
2022/05/19 11:07:18;;;;;;;6.05;4.88;;;;;;;26.81;44.61;101704.41;5017642;28;20045;-69
2022/05/19 11:09:43;;;;;;;8.07;5.10;;;;;;;26.87;44.92;101697.41;4994881;28;20048;-73
2022/05/19 11:12:18;;;;;;;11.23;5.22;;;;;;;26.91;44.33;101680.75;5012688;28;20045;-72
2022/05/19 11:15:09;;;;;;;6.05;4.80;;;;;;;26.96;44.42;101683.63;4989464;28;20392;-68
2022/05/19 11:17:43;;;;;;;5.93;4.55;;;;;;;27.00;44.64;101663.50;5016566;28;20048;-72
2022/05/19 11:20:19;;;;;;;9.30;4.72;;;;;;;27.04;44.54;101637.19;5003632;28;20531;-76
2022/05/19 11:22:48;;;;;;;7.80;4.50;;;;;;;27.06;44.65;101643.97;5020141;28;20033;-69
2022/05/19 11:28:22;;;;;;;6.45;4.30;;;;;;;27.08;44.04;101667.81;5020710;28;19935;-70
2022/05/19 11:30:55;;;;;;;5.40;4.22;;;;;;;27.11;44.17;101683.47;4985029;28;20037;-69
2022/05/19 11:33:27;;;;;;;8.80;5.05;;;;;;;27.13;44.50;101669.88;5019079;28;20488;-70
2022/05/19 11:35:59;;;;;;;7.95;4.97;;;;;;;27.21;44.34;101667.78;4985280;28;20563;-75
2022/05/19 11:38:43;;;;;;;5.97;4.90;;;;;;;27.23;43.98;101672.94;5019312;28;20052;-69
2022/05/19 11:41:19;;;;;;;8.07;4.32;;;;;;;27.20;44.25;101679.53;4988149;28;20128;-71
2022/05/19 11:44:04;;;;;;;6.40;4.53;;;;;;;27.20;43.99;101692.06;5014647;28;20084;-81
2022/05/19 11:46:37;;;;;;;6.82;4.45;;;;;;;27.20;44.48;101700.09;4991821;28;20025;-81
2022/05/19 11:55:14;;;;;;;6.95;4.65;;;;;;;27.29;43.84;101705.03;5021894;28;20471;-80
2022/05/19 11:57:43;;;;;;;8.63;4.18;;;;;;;27.28;44.04;101708.69;5019895;28;20553;-80
2022/05/19 12:00:11;;;;;;;6.68;4.90;;;;;;;27.31;44.28;101705.63;4998615;28;20160;-70
2022/05/19 12:02:51;;;;;;;9.93;5.10;;;;;;;27.30;44.12;101701.31;5015259;28;20049;-70